Airport View

Enter AWOS ICAO identifier for current METAR.

ex. KFNL

KPCM 170935Z AUTO 02005KT 10SM OVC007 10/09 A2996 RMK AO2

17 Nov 2019 09:37

Frequency: 120.025

Phone: 813-764-8259

Other Area AWOS: KLAL - KVDF - KZPH - KTPF

TAF KLAL 170534Z 1706/1806 36007KT P6SM OVC009 FM171300 36005KT P6SM SCT015 TEMPO 1713/1716 BKN015 FM171600 35007KT P6SM SCT030 SCT250 FM172300 35004KT P6SM SCT250 AMD NOT SKED TIL 171100